Participated 1 time
in 1914
Louis Luguet, France
Tour de France 2026 starts from Edinburgh, Scotland in

Stats and Facts from
Tour de France.

2026   2025   2024   2023  2022  2021  2020  2019   2018  2017   2016   2015  2014  2013   2012   2011  2010   2009   2008   2007   2006   2005   2004   2003   2002   2001   2000   1999   1998   1997  1996   1995   1994   1993   1992  1991   1990   1989   1988   1987   1986   1985   1984   1983  1982  1981   1980   1979  1978  1977   1976  1975  1974  1973   1972   1971   1970  1969   1968   1967   1966   1965  1964  1963   1962   1961   1960   1959   1958   1957  1956   1955   1954   1953   1952  1951  1950  1949   1948  1947  1939   1938   1937   1936   1935   1934   1933  1932   1931   1930  1929   1928   1927   1926  1925  1924  1923   1922   1921   1920   1919  1914   1913   1912   1911   1910  1909   1908   1907   1906  1905  1904   1903 

Tourstats
Sitemap

After stage 21 - 2026:
 16451 starters.
  5513 different riders.
  689 teams.
  2419 stages.
  470 restdays.
  469752.50 km.
  5946 abandoned riders.

Click map for 2001 route.
Facts from Tour de France 2001
  |   Stages.  |   Stage winners.  |   Days in jerseys.  |   Teams.  |   All riders.  |   All riders by age.  |   All riders from.  |  

  |   Rookies.  |   Withdrawls.  |   Average speed.  |   GC.  |   Polka  |   Green  |   White  |   Summits. (In tour)  |   Miscellaneous.  |  

Stage 16 on July 25th. 2001
Pick a stage:  Pro  1  2  3  4  5  6  7  8  9  10  11  12  13  14  15  16  17  18  19  20  

After stage 16:    Lance Armstrong  
  CastelsarrasinSarran | Dist: 229.50km. | Winner: Jens Voigt

Podium
3  Côte de Lostanges Luis Pérez Rodriguezafter172.50 km.


Average speed for all riders in stage:  39,087 km./hr.

1
 Jens Voigt  Credit Agricole05h 27' 11"=42,086  km/h

2
 Bradley McGee  Francaise Des Jeux05h 27' 16"+  00:00:05 =42,076  km/h

3
 Alexandre Botcharov  AG2R-Decathlon05h 29' 10"+  00:01:59 =41,833  km/h

4  Nicki Sørensen  CSC-Tiscali05h 29' 10"+  00:01:59 =41,833  km/h

5  Luis Pérez Rodriguez  Festina05h 30' 06"+  00:02:55 =41,715  km/h

6  Stéphane Heulot  BigMat-Auber 9305h 30' 55"+  00:03:44 =41,612  km/h

7  Eddy Seigneur  Jean Delatour05h 33' 50"+  00:06:39 =41,248  km/h

8  Erik Zabel  Deutsche Telekom05h 52' 56"+  00:25:45 =39,016  km/h

9  Stuart O'Grady  Credit Agricole05h 52' 56"+  00:25:45 =39,016  km/h

10  Damien Nazon  Bonjour05h 52' 56"+  00:25:45 =39,016  km/h

11  Patrice Halgand  Jean Delatour05h 52' 56"+  00:25:45 =39,016  km/h

12  Jan Ullrich  Deutsche Telekom05h 52' 56"+  00:25:45 =39,016  km/h

13  Mario Aerts  Lotto-Adecco05h 52' 56"+  00:25:45 =39,016  km/h

14  Francisco Mancebo  ibanesto.com05h 52' 56"+  00:25:45 =39,016  km/h

15  José Enrique Gutierrez  Kelme-Costa Blanca05h 52' 56"+  00:25:45 =39,016  km/h

16  Lance Armstrong  US Postal Service05h 52' 56"+  00:25:45 =39,016  km/h

17  Alexandre Vinokourov  Deutsche Telekom05h 52' 56"+  00:25:45 =39,016  km/h

18  Andrei Kivilev  Cofidis Credit Par Telephone05h 52' 56"+  00:25:45 =39,016  km/h

19  Didier Rous  Bonjour05h 52' 56"+  00:25:45 =39,016  km/h

20  Joseba Beloki  O.N.C.E.-Eroski05h 52' 56"+  00:25:45 =39,016  km/h

21  Michael Boogerd  Rabobank05h 52' 56"+  00:25:45 =39,016  km/h

22  Frédéric Bessy  Credit Agricole05h 52' 56"+  00:25:45 =39,016  km/h

23  Gilles Bouvard  Jean Delatour05h 52' 56"+  00:25:45 =39,016  km/h

24  Iñigo Chaurreau  Euskaltel-Euskadi05h 52' 56"+  00:25:45 =39,016  km/h

25  Óscar Sevilla  Kelme-Costa Blanca05h 52' 56"+  00:25:45 =39,016  km/h

26  Frédéric Guesdon  Francaise Des Jeux05h 52' 56"+  00:25:45 =39,016  km/h

27  Marcos Serrano  O.N.C.E.-Eroski05h 52' 56"+  00:25:45 =39,016  km/h

28  Igor González De Galdeano  O.N.C.E.-Eroski05h 52' 56"+  00:25:45 =39,016  km/h

29  François Simon  Bonjour05h 52' 56"+  00:25:45 =39,016  km/h

30  Alessandro Petacchi  Fassa Bortolo05h 52' 56"+  00:25:45 =39,016  km/h

40  Javier Pascual  ibanesto.com05h 52' 56"+  00:25:45 =39,016  km/h

31  Jacky Durand  Francaise Des Jeux05h 53' 07"+  00:25:56 =38,996  km/h

32  Paul Van Hyfte  Lotto-Adecco05h 53' 09"+  00:25:58 =38,992  km/h

33  Stive Vermaut  Lotto-Adecco05h 53' 09"+  00:25:58 =38,992  km/h

34  Laurent Brochard  Jean Delatour05h 53' 09"+  00:25:58 =38,992  km/h

35  Laurent Jalabert  CSC-Tiscali05h 53' 09"+  00:25:58 =38,992  km/h

36  Olivier Perraudeau  Bonjour05h 53' 09"+  00:25:58 =38,992  km/h

37  Sébastien Hinault  Credit Agricole05h 53' 14"+  00:26:03 =38,983  km/h

38  Félix Cárdenas  Kelme-Costa Blanca05h 53' 16"+  00:26:05 =38,979  km/h

39  Viatcheslav Ekimov  US Postal Service05h 53' 16"+  00:26:05 =38,979  km/h

41  Axel Merckx  Domo-Farm Frites05h 53' 19"+  00:26:08 =38,974  km/h

42  Alexei Sivakov  BigMat-Auber 9305h 53' 19"+  00:26:08 =38,974  km/h

43  Emmanuel Magnien  Francaise Des Jeux05h 53' 19"+  00:26:08 =38,974  km/h

44  Tyler Hamilton  US Postal Service05h 53' 19"+  00:26:08 =38,974  km/h

45  Serge Baguet  Lotto-Adecco05h 53' 19"+  00:26:08 =38,974  km/h

46  Carlos Sastre  O.N.C.E.-Eroski05h 53' 19"+  00:26:08 =38,974  km/h

47  Bobby Julich  Credit Agricole05h 53' 19"+  00:26:08 =38,974  km/h

48  Daniel Atienza  Cofidis Credit Par Telephone05h 53' 19"+  00:26:08 =38,974  km/h

49  Felix Garcia Casas  Festina05h 53' 19"+  00:26:08 =38,974  km/h

50  Christopher Jenner  Credit Agricole05h 53' 19"+  00:26:08 =38,974  km/h

51  Geert Verheyen  Rabobank05h 53' 19"+  00:26:08 =38,974  km/h

52  Pascal Chanteur  Festina05h 53' 19"+  00:26:08 =38,974  km/h

53  Javier Rodriguez  Kelme-Costa Blanca05h 53' 19"+  00:26:08 =38,974  km/h

54  Daniele Nardello  Mapei-Quick Step05h 53' 19"+  00:26:08 =38,974  km/h

55  Marc Lotz  Rabobank05h 53' 19"+  00:26:08 =38,974  km/h

56  Christophe Mengin  Francaise Des Jeux05h 53' 19"+  00:26:08 =38,974  km/h

57  Erik Dekker  Rabobank05h 53' 19"+  00:26:08 =38,974  km/h

58  Santiago Botero  Kelme-Costa Blanca05h 53' 19"+  00:26:08 =38,974  km/h

59  Thomasz Broźyna  ibanesto.com05h 53' 19"+  00:26:08 =38,974  km/h

60  Nicola Loda  Fassa Bortolo05h 53' 19"+  00:26:08 =38,974  km/h

61  Roberto Heras  US Postal Service05h 53' 19"+  00:26:08 =38,974  km/h

62  Michele Bartoli  Mapei-Quick Step05h 53' 19"+  00:26:08 =38,974  km/h

63  Guido Trentin  Cofidis Credit Par Telephone05h 53' 19"+  00:26:08 =38,974  km/h

64  Franck Bouyer  Bonjour05h 53' 19"+  00:26:08 =38,974  km/h

65  Piotr Wadecki  Domo-Farm Frites05h 53' 19"+  00:26:08 =38,974  km/h

66  Guillaume Auger  BigMat-Auber 9305h 53' 19"+  00:26:08 =38,974  km/h

67  Stéphane Goubert  Jean Delatour05h 53' 19"+  00:26:08 =38,974  km/h

68  Marco Serpellini  Lampre-Daikin05h 53' 19"+  00:26:08 =38,974  km/h

69  Johan Verstrepen  Lampre-Daikin05h 53' 19"+  00:26:08 =38,974  km/h

70  Matteo Frutti  Lampre-Daikin05h 53' 19"+  00:26:08 =38,974  km/h

71  Marco Pinotti  Lampre-Daikin05h 53' 19"+  00:26:08 =38,974  km/h

72  Michael Blaudzun  CSC-Tiscali05h 53' 19"+  00:26:08 =38,974  km/h

73  Jean-Cyril Robin  Bonjour05h 53' 19"+  00:26:08 =38,974  km/h

74  José Ivan Gutierrez  O.N.C.E.-Eroski05h 53' 19"+  00:26:08 =38,974  km/h

75  Unai Etxebarria  Euskaltel-Euskadi05h 53' 19"+  00:26:08 =38,974  km/h

76  Florent Brard  Festina05h 53' 19"+  00:26:08 =38,974  km/h

77  Jörg Jaksche  O.N.C.E.-Eroski05h 53' 19"+  00:26:08 =38,974  km/h

78  Nicolas Vogondy  Francaise Des Jeux05h 53' 19"+  00:26:08 =38,974  km/h

79  Wladimir Belli  Fassa Bortolo05h 53' 19"+  00:26:08 =38,974  km/h

80  David Moncoutié  Cofidis Credit Par Telephone05h 53' 19"+  00:26:08 =38,974  km/h

81  Laurent Roux  Jean Delatour05h 53' 19"+  00:26:08 =38,974  km/h

82  Raivis  Belohvoščiks  Lampre-Daikin05h 53' 19"+  00:26:08 =38,974  km/h

83  Francisco Cerezo  CSC-Tiscali05h 53' 19"+  00:26:08 =38,974  km/h

84  Servais Knaven  Domo-Farm Frites05h 53' 19"+  00:26:08 =38,974  km/h

85  Udo Bölts  Deutsche Telekom05h 53' 19"+  00:26:08 =38,974  km/h

86  Rolf Sørensen  CSC-Tiscali05h 53' 19"+  00:26:08 =38,974  km/h

87  Davide Bramati  Mapei-Quick Step05h 53' 19"+  00:26:08 =38,974  km/h

88  Mikel Pradera  O.N.C.E.-Eroski05h 53' 19"+  00:26:08 =38,974  km/h

89  Walter Bénéteau  Bonjour05h 53' 19"+  00:26:08 =38,974  km/h

90  Fabio Baldato  Fassa Bortolo05h 53' 19"+  00:26:08 =38,974  km/h

91  Sven Teutenberg  Festina05h 53' 19"+  00:26:08 =38,974  km/h

92  Kevin Livingston  Deutsche Telekom05h 53' 19"+  00:26:08 =38,974  km/h

93  Franck Renier  Bonjour05h 53' 19"+  00:26:08 =38,974  km/h

94  José Angel Vidal  Kelme-Costa Blanca05h 53' 19"+  00:26:08 =38,974  km/h

95  Leonardo Piepoli  ibanesto.com05h 53' 19"+  00:26:08 =38,974  km/h

96  Daniel Schnider  Francaise Des Jeux05h 53' 19"+  00:26:08 =38,974  km/h

97  Benoit Salmon  AG2R-Decathlon05h 53' 19"+  00:26:08 =38,974  km/h

98  Stefano Garzelli  Mapei-Quick Step05h 53' 19"+  00:26:08 =38,974  km/h

99  David Etxebarria  Euskaltel-Euskadi05h 53' 19"+  00:26:08 =38,974  km/h

100  Jérôme Bernard  Jean Delatour05h 53' 19"+  00:26:08 =38,974  km/h

101  Guennadi Mikhailov  Lotto-Adecco05h 53' 19"+  00:26:08 =38,974  km/h

102  Jon Odriozola  ibanesto.com05h 53' 19"+  00:26:08 =38,974  km/h

103  Antonio Tauler  Kelme-Costa Blanca05h 53' 19"+  00:26:08 =38,974  km/h

104  Denis Menchov  ibanesto.com05h 53' 19"+  00:26:08 =38,974  km/h

105  Anthony Morin  Credit Agricole05h 53' 19"+  00:26:08 =38,974  km/h

106  Enrico Cassani  Domo-Farm Frites05h 53' 19"+  00:26:08 =38,974  km/h

107  Gilles Maignan  AG2R-Decathlon05h 53' 19"+  00:26:08 =38,974  km/h

108  Sylvain Chavanel  Bonjour05h 53' 19"+  00:26:08 =38,974  km/h

109  Sébastien Talabardon  BigMat-Auber 9305h 53' 19"+  00:26:08 =38,974  km/h

110  Jakob Piil  CSC-Tiscali05h 53' 19"+  00:26:08 =38,974  km/h

111  Christophe Capelle  BigMat-Auber 9305h 53' 19"+  00:26:08 =38,974  km/h

112  Nico Mattan  Cofidis Credit Par Telephone05h 53' 19"+  00:26:08 =38,974  km/h

113  Christophe  Agnolutto  AG2R-Decathlon05h 53' 19"+  00:26:08 =38,974  km/h

114  Ludovic Turpin  AG2R-Decathlon05h 53' 19"+  00:26:08 =38,974  km/h

115  Massimiliano Lelli  Cofidis Credit Par Telephone05h 53' 19"+  00:26:08 =38,974  km/h

116  Christophe Oriol  Jean Delatour05h 53' 19"+  00:26:08 =38,974  km/h

117  Paolo Bettini  Mapei-Quick Step05h 53' 19"+  00:26:08 =38,974  km/h

118  Angel Castresana  Euskaltel-Euskadi05h 53' 19"+  00:26:08 =38,974  km/h

119  Rik Verbrugghe  Lotto-Adecco05h 53' 19"+  00:26:08 =38,974  km/h

120  Jimmy Casper  Francaise Des Jeux05h 53' 19"+  00:26:08 =38,974  km/h

121  Matteo Tosatto  Fassa Bortolo05h 53' 19"+  00:26:08 =38,974  km/h

122  Romāns Vainšteins  Domo-Farm Frites05h 53' 19"+  00:26:08 =38,974  km/h

123  Rubens Bertogliati  Lampre-Daikin05h 53' 19"+  00:26:08 =38,974  km/h

124  Ján Svorada  Lampre-Daikin05h 53' 19"+  00:26:08 =38,974  km/h

125  Ludovic Auger  BigMat-Auber 9305h 53' 19"+  00:26:08 =38,974  km/h

126  Iñigo Cuesta  Cofidis Credit Par Telephone05h 53' 19"+  00:26:08 =38,974  km/h

127  Stéphane  Berges  AG2R-Decathlon05h 53' 19"+  00:26:08 =38,974  km/h

128  Giuseppe Guerini  Deutsche Telekom05h 53' 19"+  00:26:08 =38,974  km/h

129  Alberto Lopez  Euskaltel-Euskadi05h 53' 19"+  00:26:08 =38,974  km/h

130  Eladio Jimenez  ibanesto.com05h 53' 19"+  00:26:08 =38,974  km/h

131  Marcelino Garcia  CSC-Tiscali05h 53' 19"+  00:26:08 =38,974  km/h

132  Sébastien Demarbaix  AG2R-Decathlon05h 53' 19"+  00:26:08 =38,974  km/h

133  Nicolas Jalabert  CSC-Tiscali05h 53' 19"+  00:26:08 =38,974  km/h

134  Álvaro Gonzalez De Galdeano  O.N.C.E.-Eroski05h 53' 19"+  00:26:08 =38,974  km/h

135  Max van Heeswijk  Domo-Farm Frites05h 53' 19"+  00:26:08 =38,974  km/h

136  Haimar  Zubeldía  Euskaltel-Euskadi05h 53' 19"+  00:26:08 =38,974  km/h

137  José-Luis Rubiera  US Postal Service05h 53' 19"+  00:26:08 =38,974  km/h

138  Roberto Laiseka  Euskaltel-Euskadi05h 53' 19"+  00:26:08 =38,974  km/h

139  George Hincapie  US Postal Service05h 53' 48"+  00:26:37 =38,920  km/h

140  Victor Hugo Peña  US Postal Service05h 53' 48"+  00:26:37 =38,920  km/h

142  Andréas  Klöden  Deutsche Telekom05h 53' 53"+  00:26:42 =38,911  km/h

143  Maarten Den Bakker  Rabobank05h 53' 55"+  00:26:44 =38,907  km/h

144  Grischa Niermann  Rabobank05h 53' 55"+  00:26:44 =38,907  km/h

145  Steffen Kjærgaard  US Postal Service05h 54' 28"+  00:27:17 =38,847  km/h

141  Pascal Lino  Festina06h 03' 48"+  00:36:37 =37,850  km/h

146  Thierry Gouvenou  BigMat-Auber 9306h 05' 46"+  00:38:35 =37,647  km/h


Withdrawls: 5
 RiderTeamReason
14   Jens Heppner Deutsche TelekomDid not finish
48   Oscar Pozzi Fassa BortoloDid not finish
59   Marc Wauters RabobankDid not finish
94   José Garcia Acosta ibanesto.comDid not finish
181   Sven Montgomery Francaise Des JeuxDid not finish
Todays birthdays.

1858 • Aimé Monin
1894 • Camille Nicou
1902 • Louis Millo
1902 • Aleardo Simoni
1903 • Jean-Gabriel Zenon
1926 • Isidoor De Ryck
1931 • Miguel Pacheco
1946 • Stéphane Abrahamian
1956 • Siegfried Hekimi
1957 • Peter Winnen
1958 • Marcel Russenberger
1958 • Patrick Versluys
1981 • Daniel Moreno
1984 • Chris Anker Sørensen
1989 • Joey Rosskopf

 

Optimized for Chrome - Edge
and Opera browsers.